logo
Search for airport 
image banner adimage banner adimage banner ad
image banner ad

BISL - Skaftafell

Located in Skaftafell, Iceland

ICAO - , IATA -

Data provided by Airmate  

General information

Coordinates: N64°0'0" W16°56'27"
Elevation is 260 feet MSL.
 
View others Airports in Northwest

Operational data

Special qualification required
Current time UTC:
Current local time:
Weather at : - ( 0 km )
METAR: ZMCK 170630Z 33007MPS 300V360 9999 SCT033 13/M06 Q1017 NOSIG
View NOTAMs / SUP AIP / TFR affecting this airport [VIEW]
Communications frequencies: [VIEW]

Runways:

RWY identifierQFULength (ft)Width (ft)SurfaceLDA (ft)
15200166GRAVE
33200166GRAVE
16334682GRAVE
34334682GRAVE

Airport contact information

Address: Skaftafell Iceland

Satellite view of BISL